createdAt,value
2023-03-20T00:00:26.729Z,15.55
2023-03-20T00:03:13.667Z,19.67
2023-03-20T00:05:59.190Z,19.50
2023-03-20T00:08:47.213Z,17.15
2023-03-20T00:11:34.717Z,18.25
2023-03-20T00:14:24.338Z,15.73
2023-03-20T00:17:18.082Z,17.88
2023-03-20T00:20:04.560Z,16.73
2023-03-20T00:22:51.038Z,21.10
2023-03-20T00:25:39.670Z,20.30
2023-03-20T00:28:37.478Z,24.00
2023-03-20T00:31:26.700Z,23.88
2023-03-20T00:34:14.247Z,23.75
2023-03-20T00:37:00.180Z,25.27
2023-03-20T00:39:48.507Z,26.15
2023-03-20T00:42:36.248Z,26.52
2023-03-20T00:45:21.894Z,26.42
2023-03-20T00:48:13.155Z,29.00
2023-03-20T00:53:45.382Z,27.20
2023-03-20T00:56:34.416Z,28.63
2023-03-20T00:59:26.710Z,27.17
2023-03-20T01:02:12.982Z,30.42
2023-03-20T01:04:58.778Z,23.05
2023-03-20T01:07:45.909Z,25.10
2023-03-20T01:10:33.131Z,19.02
2023-03-20T01:13:21.508Z,19.42
2023-03-20T01:16:21.099Z,19.60
2023-03-20T01:19:07.224Z,15.18
2023-03-20T01:21:52.874Z,12.65
2023-03-20T01:24:40.627Z,19.70
2023-03-20T01:27:26.512Z,14.23
2023-03-20T01:30:18.950Z,10.82
2023-03-20T01:33:14.252Z,11.35
2023-03-20T01:36:00.178Z,9.85
2023-03-20T01:38:46.721Z,6.50
2023-03-20T01:41:34.710Z,12.45
2023-03-20T01:44:23.166Z,8.15
2023-03-20T01:47:17.455Z,8.63
2023-03-20T01:50:26.409Z,9.40
2023-03-20T01:53:23.068Z,8.90
2023-03-20T01:56:15.899Z,9.43
2023-03-20T01:59:10.666Z,7.70
2023-03-20T02:01:56.879Z,7.82
2023-03-20T02:04:47.786Z,8.75
2023-03-20T02:07:38.264Z,6.53
2023-03-20T02:13:35.937Z,13.07
2023-03-20T02:16:21.826Z,8.98
2023-03-20T02:19:34.074Z,8.20
2023-03-20T02:22:57.388Z,12.70
2023-03-20T02:26:08.025Z,9.60
2023-03-20T02:29:28.514Z,11.43
2023-03-20T02:32:46.877Z,12.27
2023-03-20T02:36:06.459Z,12.93
2023-03-20T02:39:07.910Z,11.95
2023-03-20T02:42:00.760Z,12.55
2023-03-20T02:44:55.770Z,13.82
2023-03-20T02:47:50.279Z,18.95
2023-03-20T02:50:47.923Z,18.95
2023-03-20T02:53:40.938Z,11.95
2023-03-20T02:56:34.078Z,16.80
2023-03-20T02:59:28.065Z,13.52
2023-03-20T03:02:16.566Z,20.23
2023-03-20T03:05:08.181Z,16.02
2023-03-20T03:07:57.466Z,18.23
2023-03-20T03:10:46.688Z,20.73
2023-03-20T03:13:37.762Z,13.43
2023-03-20T03:16:27.425Z,18.30
2023-03-20T03:19:18.784Z,17.77
2023-03-20T03:22:05.751Z,19.02
2023-03-20T03:24:53.718Z,23.17
2023-03-20T03:27:43.405Z,22.42
2023-03-20T03:30:33.036Z,19.23
2023-03-20T03:33:21.854Z,20.83
2023-03-20T03:36:16.187Z,22.08
2023-03-20T03:39:11.464Z,25.42
2023-03-20T03:42:04.187Z,23.00
2023-03-20T03:56:12.743Z,25.90
2023-03-20T04:04:37.209Z,23.40
2023-03-20T04:07:27.791Z,26.25
2023-03-20T04:10:14.056Z,25.17
2023-03-20T04:13:00.362Z,23.15
2023-03-20T04:15:46.164Z,31.13
2023-03-20T04:18:32.168Z,31.33
2023-03-20T04:21:19.506Z,29.30
2023-03-20T04:24:06.683Z,28.38
2023-03-20T04:26:52.736Z,31.60
2023-03-20T04:29:39.460Z,34.25
2023-03-20T04:32:57.588Z,33.58
2023-03-20T04:35:55.830Z,32.00
2023-03-20T04:38:44.316Z,29.98
2023-03-20T04:41:30.210Z,35.63
2023-03-20T04:44:16.763Z,31.73
2023-03-20T04:47:04.911Z,28.83
2023-03-20T04:49:52.771Z,35.15
2023-03-20T04:52:39.130Z,32.92
2023-03-20T04:55:27.001Z,32.78
2023-03-20T04:58:15.255Z,33.92
2023-03-20T05:01:00.967Z,32.40
2023-03-20T05:03:46.697Z,32.95
2023-03-20T05:06:32.769Z,33.30
2023-03-20T05:09:19.276Z,33.33
2023-03-20T05:12:09.499Z,24.65
2023-03-20T05:15:18.060Z,31.48
2023-03-20T05:18:35.012Z,25.05
2023-03-20T05:21:39.513Z,27.55
2023-03-20T05:24:44.634Z,33.33
2023-03-20T05:27:47.863Z,28.45
2023-03-20T05:31:06.982Z,26.30
2023-03-20T05:34:12.320Z,24.90
2023-03-20T05:37:08.068Z,27.05
2023-03-20T05:40:15.449Z,22.70
2023-03-20T05:43:21.892Z,27.55
2023-03-20T05:46:26.684Z,21.48
2023-03-20T05:49:21.441Z,26.05
2023-03-20T05:52:35.080Z,25.25
2023-03-20T05:55:41.461Z,19.65
2023-03-20T07:30:08.875Z,19.90
2023-03-20T07:55:31.637Z,20.30
2023-03-20T07:58:18.728Z,23.23
2023-03-20T08:01:04.844Z,21.45
2023-03-20T08:03:50.991Z,22.35
2023-03-20T08:06:39.449Z,22.77
2023-03-20T08:09:26.280Z,18.65
2023-03-20T08:12:11.974Z,29.88
2023-03-20T08:14:59.395Z,15.15
2023-03-20T08:17:45.606Z,19.20
2023-03-20T08:20:31.785Z,16.50
2023-03-20T08:23:20.449Z,21.30
2023-03-20T08:26:07.127Z,16.85
2023-03-20T08:28:53.284Z,14.18
2023-03-20T08:31:40.354Z,13.27
2023-03-20T08:34:26.408Z,15.23
2023-03-20T08:37:13.887Z,18.48
2023-03-20T08:39:59.320Z,14.68
2023-03-20T08:42:46.176Z,18.77
2023-03-20T08:45:31.777Z,16.77
2023-03-20T08:48:19.022Z,15.65
2023-03-20T08:51:06.068Z,17.10
2023-03-20T08:53:51.811Z,17.17
2023-03-20T08:56:37.976Z,13.07
2023-03-20T08:59:23.920Z,10.32
2023-03-20T09:02:11.322Z,14.30
2023-03-20T09:04:58.844Z,17.85
2023-03-20T09:10:30.885Z,15.05
2023-03-20T09:13:26.768Z,14.63
2023-03-20T09:16:14.996Z,9.88
2023-03-20T09:19:01.454Z,15.82
2023-03-20T09:21:48.930Z,12.30
2023-03-20T09:24:34.939Z,12.25
2023-03-20T09:27:21.611Z,14.85
2023-03-20T09:30:08.987Z,14.77
2023-03-20T09:32:54.748Z,13.18
2023-03-20T09:35:43.509Z,10.15
2023-03-20T09:38:30.771Z,16.27
2023-03-20T09:41:20.321Z,15.20
2023-03-20T09:44:17.150Z,18.33
2023-03-20T09:47:20.317Z,14.80
2023-03-20T09:50:25.942Z,12.82
2023-03-20T09:53:18.110Z,14.45
2023-03-20T09:56:11.065Z,9.60
2023-03-20T09:58:58.456Z,13.35
2023-03-20T10:01:48.429Z,14.48
2023-03-20T10:04:39.052Z,8.25
2023-03-20T10:07:26.019Z,14.32
2023-03-20T10:10:13.690Z,10.43
2023-03-20T10:13:10.533Z,7.85
2023-03-20T10:16:02.679Z,10.00
2023-03-20T10:18:56.969Z,8.38
2023-03-20T10:21:44.697Z,12.85
2023-03-20T10:24:35.989Z,11.95
2023-03-20T10:27:26.869Z,12.73
2023-03-20T10:30:33.398Z,9.20
2023-03-20T10:33:41.207Z,13.25
2023-03-20T10:36:43.136Z,14.35
2023-03-20T10:39:50.351Z,10.18
2023-03-20T10:42:39.649Z,12.27
2023-03-20T10:45:38.154Z,11.40
2023-03-20T10:48:27.302Z,9.43
2023-03-20T10:51:16.376Z,8.55
2023-03-20T10:54:05.958Z,8.38
2023-03-20T10:56:55.931Z,9.90
2023-03-20T10:59:45.283Z,10.70
2023-03-20T11:02:32.549Z,14.45
2023-03-20T11:05:25.571Z,8.15
2023-03-20T11:08:13.912Z,13.38
2023-03-20T11:11:01.562Z,13.82
2023-03-20T11:13:49.237Z,11.98
2023-03-20T11:16:37.015Z,8.57
2023-03-20T11:19:24.902Z,11.50
2023-03-20T11:22:24.354Z,10.32
2023-03-20T11:25:24.411Z,11.05
2023-03-20T11:28:21.124Z,12.38
2023-03-20T11:31:16.105Z,10.60
2023-03-20T11:34:11.662Z,15.90
2023-03-20T11:37:10.094Z,12.13
2023-03-20T11:40:01.283Z,8.18
2023-03-20T11:42:54.196Z,20.58
2023-03-20T11:45:42.320Z,12.25
2023-03-20T11:48:37.909Z,12.88
2023-03-20T11:51:23.889Z,10.00
2023-03-20T11:54:17.176Z,10.20
2023-03-20T11:57:03.071Z,10.30
2023-03-20T11:59:48.739Z,12.18
2023-03-20T12:02:36.330Z,15.60
2023-03-20T12:05:31.813Z,12.05
2023-03-20T12:08:22.402Z,12.88
2023-03-20T12:11:24.881Z,16.67
2023-03-20T12:14:19.124Z,14.40
2023-03-20T12:17:27.983Z,16.58
2023-03-20T12:20:25.179Z,14.88
2023-03-20T12:23:13.725Z,17.55
2023-03-20T12:26:04.302Z,18.15
2023-03-20T12:28:58.273Z,15.17
2023-03-20T12:31:50.176Z,14.85
2023-03-20T12:34:41.128Z,12.32
2023-03-20T12:37:26.986Z,17.67
2023-03-20T12:40:16.883Z,14.15
2023-03-20T12:43:09.377Z,16.02
2023-03-20T12:46:02.892Z,15.35
2023-03-20T12:49:10.475Z,19.10
2023-03-20T12:52:04.157Z,16.35
2023-03-20T12:55:10.341Z,19.67
2023-03-20T12:58:06.490Z,14.75
2023-03-20T13:01:00.431Z,19.00
2023-03-20T13:04:21.706Z,21.65
2023-03-20T13:07:17.924Z,15.27
2023-03-20T13:10:19.560Z,15.60
2023-03-20T13:16:12.120Z,16.95
2023-03-20T13:19:07.392Z,15.68
2023-03-20T13:21:59.127Z,18.27
2023-03-20T13:24:49.753Z,20.08
2023-03-20T13:27:42.652Z,14.63
2023-03-20T13:30:35.504Z,20.85
2023-03-20T13:33:36.243Z,19.77
2023-03-20T13:36:33.708Z,17.45
2023-03-20T13:39:22.778Z,21.85
2023-03-20T13:42:14.048Z,15.95
2023-03-20T13:45:14.890Z,22.77
2023-03-20T13:48:05.663Z,15.38
2023-03-20T13:51:02.233Z,20.30
2023-03-20T13:54:01.330Z,23.60
2023-03-20T13:56:56.524Z,17.75
2023-03-20T13:59:54.139Z,24.77
2023-03-20T14:02:53.486Z,24.08
2023-03-20T14:05:41.800Z,23.38
2023-03-20T14:08:37.790Z,24.58
2023-03-20T14:11:35.448Z,20.55
2023-03-20T14:14:27.853Z,31.65
2023-03-20T14:17:17.434Z,21.90
2023-03-20T14:20:13.811Z,25.08
2023-03-20T14:23:00.196Z,22.60
2023-03-20T14:25:48.711Z,27.00
2023-03-20T14:28:45.951Z,20.00
2023-03-20T14:31:34.336Z,20.73
2023-03-20T14:34:25.864Z,22.35
2023-03-20T14:37:28.961Z,28.20
2023-03-20T14:40:17.632Z,22.25
2023-03-20T14:43:14.243Z,20.60
2023-03-20T15:03:06.892Z,19.15
2023-03-20T15:05:57.500Z,18.73
2023-03-20T15:08:47.376Z,24.55
2023-03-20T15:11:34.181Z,18.20
2023-03-20T15:14:24.870Z,15.90
2023-03-20T15:17:21.226Z,19.60
2023-03-20T15:20:15.324Z,30.73
2023-03-20T15:23:02.528Z,24.15
2023-03-20T15:25:50.709Z,16.42
2023-03-20T15:28:38.036Z,21.23
2023-03-20T15:31:26.462Z,26.67
2023-03-20T15:34:19.124Z,22.35
2023-03-20T15:37:04.902Z,19.00
2023-03-20T15:39:53.911Z,26.60
2023-03-20T15:42:39.543Z,25.05
2023-03-20T15:45:28.120Z,26.50
2023-03-20T15:48:15.977Z,23.83
2023-03-20T15:51:05.552Z,21.98
2023-03-20T15:53:51.743Z,19.77
2023-03-20T15:56:43.127Z,28.08
2023-03-20T15:59:31.884Z,29.90
2023-03-20T16:02:18.253Z,25.83
2023-03-20T16:05:13.009Z,22.35
2023-03-20T16:08:12.139Z,23.92
2023-03-20T16:10:59.545Z,26.88
2023-03-20T16:13:47.977Z,21.13
2023-03-20T16:16:37.401Z,25.77
2023-03-20T16:19:24.526Z,26.20
2023-03-20T16:22:19.122Z,24.65
2023-03-20T16:25:12.570Z,28.92
2023-03-20T16:27:58.768Z,26.30
2023-03-20T16:30:44.474Z,25.80
2023-03-20T16:33:30.889Z,29.55
2023-03-20T16:36:21.710Z,19.90
2023-03-20T16:39:10.439Z,23.50
2023-03-20T16:42:19.640Z,19.77
2023-03-20T16:45:10.959Z,25.50
2023-03-20T16:48:25.298Z,27.60
2023-03-20T16:51:17.703Z,21.75
2023-03-20T16:54:03.445Z,26.20
2023-03-20T16:56:53.886Z,21.40
2023-03-20T17:02:30.445Z,27.85
2023-03-20T17:13:38.665Z,30.05
2023-03-20T17:16:26.649Z,22.05
2023-03-20T17:19:15.981Z,23.48
2023-03-20T17:22:05.533Z,25.60
2023-03-20T17:24:52.337Z,20.23
2023-03-20T17:27:39.258Z,21.15
2023-03-20T17:30:26.087Z,24.80
2023-03-20T18:00:14.889Z,21.60
2023-03-20T18:03:00.560Z,30.25
2023-03-20T18:05:50.864Z,21.67
2023-03-20T18:16:58.601Z,27.60
2023-03-20T18:19:44.766Z,21.00
2023-03-20T18:22:30.405Z,29.83
2023-03-20T18:25:16.201Z,27.60
2023-03-20T18:28:05.202Z,28.10
2023-03-20T18:30:51.671Z,31.67
2023-03-20T18:41:58.411Z,36.63
2023-03-20T18:44:45.870Z,35.60
2023-03-20T18:47:34.917Z,35.00
2023-03-20T18:50:25.105Z,31.98
2023-03-20T18:53:10.886Z,34.22
2023-03-20T18:55:57.052Z,30.77
2023-03-20T18:58:43.916Z,33.88
2023-03-20T19:01:30.992Z,30.35
2023-03-20T19:04:16.929Z,30.80
2023-03-20T19:07:03.105Z,36.80
2023-03-20T19:09:48.543Z,34.47
2023-03-20T19:12:34.202Z,32.70
2023-03-20T19:15:20.319Z,41.25
2023-03-20T19:18:15.482Z,33.95
2023-03-20T19:21:01.530Z,31.80
2023-03-20T19:23:48.175Z,33.85
2023-03-20T19:26:36.122Z,35.42
2023-03-20T19:29:21.740Z,36.00
2023-03-20T19:32:07.318Z,32.70
2023-03-20T19:35:40.847Z,35.65
2023-03-20T19:38:00.625Z,38.22
2023-03-20T19:40:47.975Z,38.60
2023-03-20T19:43:33.595Z,34.33
2023-03-20T19:46:37.691Z,40.75
2023-03-20T19:49:30.631Z,43.38
2023-03-20T19:52:28.661Z,41.65
2023-03-20T19:55:14.484Z,40.28
2023-03-20T19:58:00.849Z,34.08
2023-03-20T20:00:58.890Z,39.60
2023-03-20T20:03:46.177Z,39.03
2023-03-20T20:06:33.239Z,39.92
2023-03-20T20:09:20.974Z,46.17
2023-03-20T20:12:07.290Z,46.13
2023-03-20T20:14:53.201Z,47.65
2023-03-20T20:17:41.011Z,43.80
2023-03-20T20:20:29.466Z,40.22
2023-03-20T20:23:18.245Z,44.92
2023-03-20T20:26:07.858Z,46.88
2023-03-20T20:28:53.761Z,48.50
2023-03-20T20:31:39.680Z,46.22
2023-03-20T20:35:22.664Z,46.38
2023-03-20T20:40:38.766Z,50.58
2023-03-20T20:43:50.675Z,52.40
2023-03-20T20:46:31.827Z,47.72
2023-03-20T20:49:19.769Z,64.00
2023-03-20T20:52:05.989Z,58.80
2023-03-20T20:54:51.793Z,51.88
2023-03-20T20:57:37.973Z,56.15
2023-03-20T21:00:41.033Z,59.85
2023-03-20T21:03:32.084Z,65.72
2023-03-20T21:06:17.771Z,53.55
2023-03-20T21:09:03.949Z,52.22
2023-03-20T21:11:49.888Z,58.05
2023-03-20T21:14:35.865Z,58.63
2023-03-20T21:17:24.900Z,59.08
2023-03-20T21:20:12.274Z,60.95
2023-03-20T21:22:58.447Z,60.58
2023-03-20T21:25:47.871Z,66.95
2023-03-20T21:28:34.416Z,62.10
2023-03-20T21:31:28.496Z,60.47
2023-03-20T21:34:18.905Z,59.08
2023-03-20T21:38:04.009Z,60.97
2023-03-20T21:40:12.369Z,63.80
2023-03-20T21:42:58.563Z,65.20
2023-03-20T21:46:37.507Z,78.43
2023-03-20T21:49:40.164Z,71.70
2023-03-20T21:55:48.147Z,82.00
2023-03-20T21:58:50.866Z,68.70
2023-03-20T22:08:08.922Z,72.30
2023-03-20T22:29:58.879Z,62.75
2023-03-20T22:33:12.624Z,54.30
2023-03-20T22:42:22.339Z,54.95
2023-03-20T22:45:00.065Z,55.05
2023-03-20T22:47:47.243Z,59.40
2023-03-20T22:50:32.979Z,54.38
2023-03-20T22:53:19.247Z,51.65
2023-03-20T22:56:07.788Z,54.65
2023-03-20T22:58:53.811Z,51.33
2023-03-20T23:01:39.824Z,43.80
2023-03-20T23:04:27.454Z,39.28
2023-03-20T23:07:14.400Z,43.17
2023-03-20T23:10:00.829Z,52.00
2023-03-20T23:12:47.723Z,54.60
2023-03-20T23:15:33.430Z,43.40
2023-03-20T23:18:19.459Z,46.00
2023-03-20T23:21:06.282Z,46.92
2023-03-20T23:23:51.922Z,45.83
2023-03-20T23:26:38.106Z,43.35
2023-03-20T23:29:25.461Z,39.08
2023-03-20T23:32:11.089Z,52.33
2023-03-20T23:34:57.032Z,48.00
2023-03-20T23:37:42.914Z,48.78
2023-03-20T23:40:28.350Z,44.88
2023-03-20T23:43:14.132Z,46.72
2023-03-20T23:46:01.210Z,56.05
2023-03-20T23:48:47.395Z,50.15
2023-03-20T23:51:33.504Z,50.03
2023-03-20T23:54:19.036Z,52.47
2023-03-20T23:57:04.547Z,49.28
2023-03-20T23:59:50.472Z,51.47
